sensor_id;sensor_type;location;lat;lon;timestamp;temperature;humidity
6377;DHT22;3221;48.858;10.128;2022-12-20T00:01:27;3.30;99.90
6377;DHT22;3221;48.858;10.128;2022-12-20T00:03:56;3.40;99.90
6377;DHT22;3221;48.858;10.128;2022-12-20T00:06:24;3.20;99.90
6377;DHT22;3221;48.858;10.128;2022-12-20T00:08:56;3.30;99.90
6377;DHT22;3221;48.858;10.128;2022-12-20T00:11:24;3.50;99.90
6377;DHT22;3221;48.858;10.128;2022-12-20T00:13:51;3.50;99.90
6377;DHT22;3221;48.858;10.128;2022-12-20T00:16:23;3.60;99.90
6377;DHT22;3221;48.858;10.128;2022-12-20T00:18:51;3.50;99.90
6377;DHT22;3221;48.858;10.128;2022-12-20T00:21:19;3.40;99.90
6377;DHT22;3221;48.858;10.128;2022-12-20T00:23:46;3.20;99.90
6377;DHT22;3221;48.858;10.128;2022-12-20T00:26:15;3.30;99.90
6377;DHT22;3221;48.858;10.128;2022-12-20T00:28:43;3.20;99.90
6377;DHT22;3221;48.858;10.128;2022-12-20T00:31:12;3.20;99.90
6377;DHT22;3221;48.858;10.128;2022-12-20T00:33:40;3.30;99.90
6377;DHT22;3221;48.858;10.128;2022-12-20T00:36:10;3.20;99.90
6377;DHT22;3221;48.858;10.128;2022-12-20T00:38:37;3.40;99.90
6377;DHT22;3221;48.858;10.128;2022-12-20T00:41:19;3.80;99.90
6377;DHT22;3221;48.858;10.128;2022-12-20T00:43:47;4.00;99.90
6377;DHT22;3221;48.858;10.128;2022-12-20T00:46:16;4.20;99.90
6377;DHT22;3221;48.858;10.128;2022-12-20T00:48:43;4.20;99.90
6377;DHT22;3221;48.858;10.128;2022-12-20T00:51:12;4.20;99.90
6377;DHT22;3221;48.858;10.128;2022-12-20T00:53:40;4.20;99.90
6377;DHT22;3221;48.858;10.128;2022-12-20T00:56:08;4.20;99.90
6377;DHT22;3221;48.858;10.128;2022-12-20T00:58:38;4.20;99.90
6377;DHT22;3221;48.858;10.128;2022-12-20T01:01:34;4.10;99.90
6377;DHT22;3221;48.858;10.128;2022-12-20T01:04:01;4.10;99.90
6377;DHT22;3221;48.858;10.128;2022-12-20T01:06:29;4.10;99.90
6377;DHT22;3221;48.858;10.128;2022-12-20T01:08:57;4.10;99.90
6377;DHT22;3221;48.858;10.128;2022-12-20T01:11:26;3.90;99.90
6377;DHT22;3221;48.858;10.128;2022-12-20T01:13:55;4.00;99.90
6377;DHT22;3221;48.858;10.128;2022-12-20T01:16:26;4.10;99.90
6377;DHT22;3221;48.858;10.128;2022-12-20T01:18:53;4.00;99.90
6377;DHT22;3221;48.858;10.128;2022-12-20T01:21:22;4.00;99.90
6377;DHT22;3221;48.858;10.128;2022-12-20T01:23:49;4.00;99.90
6377;DHT22;3221;48.858;10.128;2022-12-20T01:26:19;4.00;99.90
6377;DHT22;3221;48.858;10.128;2022-12-20T01:28:52;4.00;99.90
6377;DHT22;3221;48.858;10.128;2022-12-20T01:31:20;4.00;99.90
6377;DHT22;3221;48.858;10.128;2022-12-20T01:33:48;4.00;99.90
6377;DHT22;3221;48.858;10.128;2022-12-20T01:36:21;4.00;99.90
6377;DHT22;3221;48.858;10.128;2022-12-20T01:38:55;4.10;99.90
6377;DHT22;3221;48.858;10.128;2022-12-20T01:41:22;4.30;99.90
6377;DHT22;3221;48.858;10.128;2022-12-20T01:43:52;4.40;99.90
6377;DHT22;3221;48.858;10.128;2022-12-20T01:46:21;4.60;99.90
6377;DHT22;3221;48.858;10.128;2022-12-20T01:48:57;4.30;99.90
6377;DHT22;3221;48.858;10.128;2022-12-20T01:51:27;4.30;99.90
6377;DHT22;3221;48.858;10.128;2022-12-20T01:54:01;4.40;99.90
6377;DHT22;3221;48.858;10.128;2022-12-20T01:56:29;4.60;99.90
6377;DHT22;3221;48.858;10.128;2022-12-20T01:58:57;4.70;99.90
6377;DHT22;3221;48.858;10.128;2022-12-20T02:01:24;4.80;99.90
6377;DHT22;3221;48.858;10.128;2022-12-20T02:03:54;4.80;99.90
6377;DHT22;3221;48.858;10.128;2022-12-20T02:06:23;4.80;99.90
6377;DHT22;3221;48.858;10.128;2022-12-20T02:08:53;4.70;99.90
6377;DHT22;3221;48.858;10.128;2022-12-20T02:16:57;4.80;99.90
6377;DHT22;3221;48.858;10.128;2022-12-20T02:28:03;4.70;99.90
6377;DHT22;3221;48.858;10.128;2022-12-20T02:30:41;4.70;99.90
6377;DHT22;3221;48.858;10.128;2022-12-20T02:33:12;4.50;99.90
6377;DHT22;3221;48.858;10.128;2022-12-20T02:35:40;4.90;99.90
6377;DHT22;3221;48.858;10.128;2022-12-20T02:38:31;4.90;99.90
6377;DHT22;3221;48.858;10.128;2022-12-20T02:41:36;4.80;99.90
6377;DHT22;3221;48.858;10.128;2022-12-20T02:44:12;4.80;99.90
6377;DHT22;3221;48.858;10.128;2022-12-20T02:47:01;4.90;99.90
6377;DHT22;3221;48.858;10.128;2022-12-20T02:49:32;4.90;99.90
6377;DHT22;3221;48.858;10.128;2022-12-20T02:52:00;4.90;99.90
6377;DHT22;3221;48.858;10.128;2022-12-20T02:54:29;5.00;99.90
6377;DHT22;3221;48.858;10.128;2022-12-20T02:57:01;4.90;99.90
6377;DHT22;3221;48.858;10.128;2022-12-20T02:59:38;4.80;99.90
6377;DHT22;3221;48.858;10.128;2022-12-20T03:02:07;5.00;99.90
6377;DHT22;3221;48.858;10.128;2022-12-20T03:04:37;5.10;99.90
6377;DHT22;3221;48.858;10.128;2022-12-20T03:07:11;5.10;99.90
6377;DHT22;3221;48.858;10.128;2022-12-20T03:09:41;5.00;99.90
6377;DHT22;3221;48.858;10.128;2022-12-20T03:12:12;5.00;99.90
6377;DHT22;3221;48.858;10.128;2022-12-20T03:14:39;5.20;99.90
6377;DHT22;3221;48.858;10.128;2022-12-20T03:17:09;5.10;99.90
6377;DHT22;3221;48.858;10.128;2022-12-20T03:19:37;5.00;99.90
6377;DHT22;3221;48.858;10.128;2022-12-20T03:22:05;5.10;99.90
6377;DHT22;3221;48.858;10.128;2022-12-20T03:24:32;5.10;99.90
6377;DHT22;3221;48.858;10.128;2022-12-20T03:26:59;5.30;99.90
6377;DHT22;3221;48.858;10.128;2022-12-20T03:29:26;5.20;99.90
6377;DHT22;3221;48.858;10.128;2022-12-20T03:31:53;5.20;99.90
6377;DHT22;3221;48.858;10.128;2022-12-20T03:34:21;5.00;99.90
6377;DHT22;3221;48.858;10.128;2022-12-20T03:36:48;4.90;99.90
6377;DHT22;3221;48.858;10.128;2022-12-20T03:39:15;4.70;99.90
6377;DHT22;3221;48.858;10.128;2022-12-20T03:41:43;4.70;99.90
6377;DHT22;3221;48.858;10.128;2022-12-20T03:44:13;4.70;99.90
6377;DHT22;3221;48.858;10.128;2022-12-20T03:46:40;5.00;99.90
6377;DHT22;3221;48.858;10.128;2022-12-20T03:49:07;4.70;99.90
6377;DHT22;3221;48.858;10.128;2022-12-20T03:51:42;4.60;99.90
6377;DHT22;3221;48.858;10.128;2022-12-20T03:54:08;4.50;99.90
6377;DHT22;3221;48.858;10.128;2022-12-20T03:56:53;4.40;99.90
6377;DHT22;3221;48.858;10.128;2022-12-20T03:59:21;4.80;99.90
6377;DHT22;3221;48.858;10.128;2022-12-20T04:01:48;5.10;99.90
6377;DHT22;3221;48.858;10.128;2022-12-20T04:04:15;5.10;99.90
6377;DHT22;3221;48.858;10.128;2022-12-20T04:06:44;5.10;99.90
6377;DHT22;3221;48.858;10.128;2022-12-20T04:09:11;5.00;99.90
6377;DHT22;3221;48.858;10.128;2022-12-20T04:11:45;5.20;99.90
6377;DHT22;3221;48.858;10.128;2022-12-20T04:14:14;5.20;99.90
6377;DHT22;3221;48.858;10.128;2022-12-20T04:16:42;5.10;99.90
6377;DHT22;3221;48.858;10.128;2022-12-20T04:19:09;4.90;99.90
6377;DHT22;3221;48.858;10.128;2022-12-20T04:21:44;4.60;99.90
6377;DHT22;3221;48.858;10.128;2022-12-20T04:24:12;4.60;99.90
6377;DHT22;3221;48.858;10.128;2022-12-20T04:26:45;5.20;99.90
6377;DHT22;3221;48.858;10.128;2022-12-20T04:29:14;5.10;99.90
6377;DHT22;3221;48.858;10.128;2022-12-20T04:31:42;5.10;99.90
6377;DHT22;3221;48.858;10.128;2022-12-20T04:34:09;4.90;99.90
6377;DHT22;3221;48.858;10.128;2022-12-20T04:36:37;4.70;99.90
6377;DHT22;3221;48.858;10.128;2022-12-20T04:39:08;4.40;99.90
6377;DHT22;3221;48.858;10.128;2022-12-20T04:41:56;4.30;99.90
6377;DHT22;3221;48.858;10.128;2022-12-20T04:44:22;4.50;99.90
6377;DHT22;3221;48.858;10.128;2022-12-20T04:46:51;4.60;99.90
6377;DHT22;3221;48.858;10.128;2022-12-20T04:49:18;4.70;99.90
6377;DHT22;3221;48.858;10.128;2022-12-20T04:51:45;4.80;99.90
6377;DHT22;3221;48.858;10.128;2022-12-20T04:54:15;4.70;99.90
6377;DHT22;3221;48.858;10.128;2022-12-20T04:56:54;4.70;99.90
6377;DHT22;3221;48.858;10.128;2022-12-20T04:59:23;4.50;99.90
6377;DHT22;3221;48.858;10.128;2022-12-20T05:01:52;4.70;99.90
6377;DHT22;3221;48.858;10.128;2022-12-20T05:04:43;5.00;99.90
6377;DHT22;3221;48.858;10.128;2022-12-20T05:07:10;5.10;99.90
6377;DHT22;3221;48.858;10.128;2022-12-20T05:09:40;5.10;99.90
6377;DHT22;3221;48.858;10.128;2022-12-20T05:12:07;5.10;99.90
6377;DHT22;3221;48.858;10.128;2022-12-20T05:14:34;5.00;99.90
6377;DHT22;3221;48.858;10.128;2022-12-20T05:17:01;5.20;99.90
6377;DHT22;3221;48.858;10.128;2022-12-20T05:19:28;5.30;99.90
6377;DHT22;3221;48.858;10.128;2022-12-20T05:21:55;5.20;99.90
6377;DHT22;3221;48.858;10.128;2022-12-20T05:24:49;5.00;99.90
6377;DHT22;3221;48.858;10.128;2022-12-20T05:27:37;4.90;99.90
6377;DHT22;3221;48.858;10.128;2022-12-20T05:30:04;4.80;99.90
6377;DHT22;3221;48.858;10.128;2022-12-20T05:32:31;4.80;99.90
6377;DHT22;3221;48.858;10.128;2022-12-20T05:34:59;4.80;99.90
6377;DHT22;3221;48.858;10.128;2022-12-20T05:37:26;4.80;99.90
6377;DHT22;3221;48.858;10.128;2022-12-20T05:39:57;4.90;99.90
6377;DHT22;3221;48.858;10.128;2022-12-20T05:42:24;4.90;99.90
6377;DHT22;3221;48.858;10.128;2022-12-20T05:44:52;5.00;99.90
6377;DHT22;3221;48.858;10.128;2022-12-20T05:47:20;4.90;99.90
6377;DHT22;3221;48.858;10.128;2022-12-20T05:49:54;4.90;99.90
6377;DHT22;3221;48.858;10.128;2022-12-20T05:52:21;4.80;99.90
6377;DHT22;3221;48.858;10.128;2022-12-20T05:54:49;4.80;99.90
6377;DHT22;3221;48.858;10.128;2022-12-20T05:57:17;4.70;99.90
6377;DHT22;3221;48.858;10.128;2022-12-20T05:59:45;4.70;99.90
6377;DHT22;3221;48.858;10.128;2022-12-20T06:02:15;4.60;99.90
6377;DHT22;3221;48.858;10.128;2022-12-20T06:04:43;4.50;99.90
6377;DHT22;3221;48.858;10.128;2022-12-20T06:07:16;4.50;99.90
6377;DHT22;3221;48.858;10.128;2022-12-20T06:09:47;4.50;99.90
6377;DHT22;3221;48.858;10.128;2022-12-20T06:12:16;4.40;99.90
6377;DHT22;3221;48.858;10.128;2022-12-20T06:14:45;4.50;99.90
6377;DHT22;3221;48.858;10.128;2022-12-20T06:17:12;4.50;99.90
6377;DHT22;3221;48.858;10.128;2022-12-20T06:19:39;4.50;99.90
6377;DHT22;3221;48.858;10.128;2022-12-20T06:22:11;4.50;99.90
6377;DHT22;3221;48.858;10.128;2022-12-20T06:24:46;4.50;99.90
6377;DHT22;3221;48.858;10.128;2022-12-20T06:27:17;4.60;99.90
6377;DHT22;3221;48.858;10.128;2022-12-20T06:29:49;4.60;99.90
6377;DHT22;3221;48.858;10.128;2022-12-20T06:32:23;4.70;99.90
6377;DHT22;3221;48.858;10.128;2022-12-20T06:34:50;4.60;99.90
6377;DHT22;3221;48.858;10.128;2022-12-20T06:37:17;4.70;99.90
6377;DHT22;3221;48.858;10.128;2022-12-20T06:39:44;4.60;99.90
6377;DHT22;3221;48.858;10.128;2022-12-20T06:42:12;4.80;99.90
6377;DHT22;3221;48.858;10.128;2022-12-20T06:44:41;5.00;99.90
6377;DHT22;3221;48.858;10.128;2022-12-20T06:47:08;5.00;99.90
6377;DHT22;3221;48.858;10.128;2022-12-20T06:49:36;5.10;99.90
6377;DHT22;3221;48.858;10.128;2022-12-20T06:52:10;4.90;99.90
6377;DHT22;3221;48.858;10.128;2022-12-20T06:54:44;4.90;99.90
6377;DHT22;3221;48.858;10.128;2022-12-20T06:57:12;4.80;99.90
6377;DHT22;3221;48.858;10.128;2022-12-20T06:59:40;4.70;99.90
6377;DHT22;3221;48.858;10.128;2022-12-20T07:02:12;4.70;99.90
6377;DHT22;3221;48.858;10.128;2022-12-20T07:04:39;4.60;99.90
6377;DHT22;3221;48.858;10.128;2022-12-20T07:07:06;4.40;99.90
6377;DHT22;3221;48.858;10.128;2022-12-20T07:09:34;4.40;99.90
6377;DHT22;3221;48.858;10.128;2022-12-20T07:12:01;4.40;99.90
6377;DHT22;3221;48.858;10.128;2022-12-20T07:14:28;4.40;99.90
6377;DHT22;3221;48.858;10.128;2022-12-20T07:16:54;4.60;99.90
6377;DHT22;3221;48.858;10.128;2022-12-20T07:19:21;4.60;99.90
6377;DHT22;3221;48.858;10.128;2022-12-20T07:21:48;4.60;99.90
6377;DHT22;3221;48.858;10.128;2022-12-20T07:24:15;4.40;99.90
6377;DHT22;3221;48.858;10.128;2022-12-20T07:26:45;4.50;99.90
6377;DHT22;3221;48.858;10.128;2022-12-20T07:29:12;4.40;99.90
6377;DHT22;3221;48.858;10.128;2022-12-20T07:31:41;4.40;99.90
6377;DHT22;3221;48.858;10.128;2022-12-20T07:34:09;4.30;99.90
6377;DHT22;3221;48.858;10.128;2022-12-20T07:36:36;4.50;99.90
6377;DHT22;3221;48.858;10.128;2022-12-20T07:39:03;4.40;99.90
6377;DHT22;3221;48.858;10.128;2022-12-20T07:41:30;4.40;99.90
6377;DHT22;3221;48.858;10.128;2022-12-20T07:43:58;4.50;99.90
6377;DHT22;3221;48.858;10.128;2022-12-20T07:46:25;4.50;99.90
6377;DHT22;3221;48.858;10.128;2022-12-20T07:48:52;4.50;99.90
6377;DHT22;3221;48.858;10.128;2022-12-20T07:51:28;4.50;99.90
6377;DHT22;3221;48.858;10.128;2022-12-20T07:54:07;4.90;99.90
6377;DHT22;3221;48.858;10.128;2022-12-20T07:56:38;4.80;99.90
6377;DHT22;3221;48.858;10.128;2022-12-20T07:59:09;4.80;99.90
6377;DHT22;3221;48.858;10.128;2022-12-20T08:01:37;4.70;99.90
6377;DHT22;3221;48.858;10.128;2022-12-20T08:04:12;4.80;99.90
6377;DHT22;3221;48.858;10.128;2022-12-20T08:06:41;4.80;99.90
6377;DHT22;3221;48.858;10.128;2022-12-20T08:09:10;4.90;99.90
6377;DHT22;3221;48.858;10.128;2022-12-20T08:11:43;4.90;99.90
6377;DHT22;3221;48.858;10.128;2022-12-20T08:14:10;5.00;99.90
6377;DHT22;3221;48.858;10.128;2022-12-20T08:16:38;4.90;99.90
6377;DHT22;3221;48.858;10.128;2022-12-20T08:19:05;4.90;99.90
6377;DHT22;3221;48.858;10.128;2022-12-20T08:21:31;4.80;99.90
6377;DHT22;3221;48.858;10.128;2022-12-20T08:23:58;4.90;99.90
6377;DHT22;3221;48.858;10.128;2022-12-20T08:26:25;5.10;99.90
6377;DHT22;3221;48.858;10.128;2022-12-20T08:28:53;5.20;99.90
6377;DHT22;3221;48.858;10.128;2022-12-20T08:31:20;5.30;99.90
6377;DHT22;3221;48.858;10.128;2022-12-20T08:33:48;5.30;99.90
6377;DHT22;3221;48.858;10.128;2022-12-20T08:36:15;5.30;99.90
6377;DHT22;3221;48.858;10.128;2022-12-20T08:38:42;5.30;99.90
6377;DHT22;3221;48.858;10.128;2022-12-20T08:41:11;5.30;99.90
6377;DHT22;3221;48.858;10.128;2022-12-20T08:43:40;5.20;99.90
6377;DHT22;3221;48.858;10.128;2022-12-20T08:46:08;5.10;99.90
6377;DHT22;3221;48.858;10.128;2022-12-20T08:48:35;5.20;99.90
6377;DHT22;3221;48.858;10.128;2022-12-20T08:51:08;5.10;99.90
6377;DHT22;3221;48.858;10.128;2022-12-20T08:53:36;5.10;99.90
6377;DHT22;3221;48.858;10.128;2022-12-20T08:56:23;5.00;99.90
6377;DHT22;3221;48.858;10.128;2022-12-20T08:58:50;4.90;99.90
6377;DHT22;3221;48.858;10.128;2022-12-20T09:01:19;4.90;99.90
6377;DHT22;3221;48.858;10.128;2022-12-20T09:03:47;4.90;99.90
6377;DHT22;3221;48.858;10.128;2022-12-20T09:06:17;4.80;99.90
6377;DHT22;3221;48.858;10.128;2022-12-20T09:08:46;4.80;99.90
6377;DHT22;3221;48.858;10.128;2022-12-20T09:11:24;4.70;99.90
6377;DHT22;3221;48.858;10.128;2022-12-20T09:13:54;4.70;99.90
6377;DHT22;3221;48.858;10.128;2022-12-20T09:16:27;4.80;99.90
6377;DHT22;3221;48.858;10.128;2022-12-20T09:18:55;4.80;99.90
6377;DHT22;3221;48.858;10.128;2022-12-20T09:21:30;4.90;99.90
6377;DHT22;3221;48.858;10.128;2022-12-20T09:23:57;4.90;99.90
6377;DHT22;3221;48.858;10.128;2022-12-20T09:26:25;4.80;99.90
6377;DHT22;3221;48.858;10.128;2022-12-20T09:28:51;4.70;99.90
6377;DHT22;3221;48.858;10.128;2022-12-20T09:31:23;4.60;99.90
6377;DHT22;3221;48.858;10.128;2022-12-20T09:33:56;4.60;99.90
6377;DHT22;3221;48.858;10.128;2022-12-20T09:36:26;4.40;99.90
6377;DHT22;3221;48.858;10.128;2022-12-20T09:38:53;4.40;99.90
6377;DHT22;3221;48.858;10.128;2022-12-20T09:41:25;4.50;99.90
6377;DHT22;3221;48.858;10.128;2022-12-20T09:43:53;4.50;99.90
6377;DHT22;3221;48.858;10.128;2022-12-20T09:46:22;4.20;99.90
6377;DHT22;3221;48.858;10.128;2022-12-20T09:48:51;4.20;99.90
6377;DHT22;3221;48.858;10.128;2022-12-20T09:52:01;4.30;99.90
6377;DHT22;3221;48.858;10.128;2022-12-20T09:57:49;4.20;99.90
6377;DHT22;3221;48.858;10.128;2022-12-20T10:00:16;4.20;99.90
6377;DHT22;3221;48.858;10.128;2022-12-20T10:02:44;4.30;99.90
6377;DHT22;3221;48.858;10.128;2022-12-20T10:08:54;4.40;99.90
6377;DHT22;3221;48.858;10.128;2022-12-20T10:11:41;4.40;99.90
6377;DHT22;3221;48.858;10.128;2022-12-20T10:17:04;4.50;99.90
6377;DHT22;3221;48.858;10.128;2022-12-20T10:22:24;4.50;99.90
6377;DHT22;3221;48.858;10.128;2022-12-20T10:27:40;4.50;99.90
6377;DHT22;3221;48.858;10.128;2022-12-20T10:30:18;4.60;99.90
6377;DHT22;3221;48.858;10.128;2022-12-20T10:32:49;4.50;99.90
6377;DHT22;3221;48.858;10.128;2022-12-20T10:38:09;4.80;99.90
6377;DHT22;3221;48.858;10.128;2022-12-20T10:40:44;5.00;99.90
6377;DHT22;3221;48.858;10.128;2022-12-20T10:43:41;5.10;99.90
6377;DHT22;3221;48.858;10.128;2022-12-20T10:46:09;5.20;99.90
6377;DHT22;3221;48.858;10.128;2022-12-20T10:48:40;5.20;99.90
6377;DHT22;3221;48.858;10.128;2022-12-20T10:54:02;5.30;99.90
6377;DHT22;3221;48.858;10.128;2022-12-20T10:56:31;5.50;99.90
6377;DHT22;3221;48.858;10.128;2022-12-20T10:59:02;5.60;99.90
6377;DHT22;3221;48.858;10.128;2022-12-20T11:01:35;5.60;99.90
6377;DHT22;3221;48.858;10.128;2022-12-20T11:04:30;5.60;99.90
6377;DHT22;3221;48.858;10.128;2022-12-20T11:06:59;5.70;99.90
6377;DHT22;3221;48.858;10.128;2022-12-20T11:09:35;5.70;99.90
6377;DHT22;3221;48.858;10.128;2022-12-20T11:14:34;5.90;99.90
6377;DHT22;3221;48.858;10.128;2022-12-20T11:17:30;5.90;99.90
6377;DHT22;3221;48.858;10.128;2022-12-20T11:28:16;6.00;99.90
6377;DHT22;3221;48.858;10.128;2022-12-20T11:33:39;6.00;99.90
6377;DHT22;3221;48.858;10.128;2022-12-20T11:39:31;6.20;99.90
6377;DHT22;3221;48.858;10.128;2022-12-20T11:53:07;6.20;99.90
6377;DHT22;3221;48.858;10.128;2022-12-20T11:55:40;6.10;99.90
6377;DHT22;3221;48.858;10.128;2022-12-20T11:58:25;6.00;99.90
6377;DHT22;3221;48.858;10.128;2022-12-20T12:01:11;6.00;99.90
6377;DHT22;3221;48.858;10.128;2022-12-20T12:03:42;6.10;99.90
6377;DHT22;3221;48.858;10.128;2022-12-20T12:11:36;6.20;99.90
6377;DHT22;3221;48.858;10.128;2022-12-20T12:14:50;6.30;99.90
6377;DHT22;3221;48.858;10.128;2022-12-20T12:17:37;6.20;99.90
6377;DHT22;3221;48.858;10.128;2022-12-20T12:20:18;6.20;99.90
6377;DHT22;3221;48.858;10.128;2022-12-20T12:22:46;6.00;99.90
6377;DHT22;3221;48.858;10.128;2022-12-20T12:25:16;6.20;99.90
6377;DHT22;3221;48.858;10.128;2022-12-20T12:27:44;6.10;99.90
6377;DHT22;3221;48.858;10.128;2022-12-20T12:30:13;6.10;99.90
6377;DHT22;3221;48.858;10.128;2022-12-20T12:32:48;6.30;99.90
6377;DHT22;3221;48.858;10.128;2022-12-20T12:35:39;6.30;99.90
6377;DHT22;3221;48.858;10.128;2022-12-20T12:38:42;6.20;99.90
6377;DHT22;3221;48.858;10.128;2022-12-20T12:41:45;6.20;99.90
6377;DHT22;3221;48.858;10.128;2022-12-20T12:46:49;6.10;99.90
6377;DHT22;3221;48.858;10.128;2022-12-20T12:49:21;6.30;99.90
6377;DHT22;3221;48.858;10.128;2022-12-20T12:51:52;6.20;99.90
6377;DHT22;3221;48.858;10.128;2022-12-20T12:54:26;6.50;99.90
6377;DHT22;3221;48.858;10.128;2022-12-20T12:57:02;6.60;99.90
6377;DHT22;3221;48.858;10.128;2022-12-20T13:10:54;6.80;99.90
6377;DHT22;3221;48.858;10.128;2022-12-20T13:12:58;6.80;99.90
6377;DHT22;3221;48.858;10.128;2022-12-20T13:18:22;6.80;99.90
6377;DHT22;3221;48.858;10.128;2022-12-20T13:21:23;6.90;99.90
6377;DHT22;3221;48.858;10.128;2022-12-20T13:26:59;7.20;99.90
6377;DHT22;3221;48.858;10.128;2022-12-20T13:29:33;7.00;99.90
6377;DHT22;3221;48.858;10.128;2022-12-20T13:32:01;7.00;99.90
6377;DHT22;3221;48.858;10.128;2022-12-20T13:34:36;6.80;99.90
6377;DHT22;3221;48.858;10.128;2022-12-20T13:37:27;6.80;99.90
6377;DHT22;3221;48.858;10.128;2022-12-20T13:39:54;6.80;99.90
6377;DHT22;3221;48.858;10.128;2022-12-20T13:42:31;6.80;99.90
6377;DHT22;3221;48.858;10.128;2022-12-20T13:45:02;6.70;99.90
6377;DHT22;3221;48.858;10.128;2022-12-20T13:47:39;6.70;99.90
6377;DHT22;3221;48.858;10.128;2022-12-20T13:50:29;6.90;99.90
6377;DHT22;3221;48.858;10.128;2022-12-20T13:52:57;7.00;99.90
6377;DHT22;3221;48.858;10.128;2022-12-20T13:55:39;7.00;99.90
6377;DHT22;3221;48.858;10.128;2022-12-20T13:58:32;7.10;99.90
6377;DHT22;3221;48.858;10.128;2022-12-20T14:01:06;7.00;99.90
6377;DHT22;3221;48.858;10.128;2022-12-20T14:03:41;6.90;99.90
6377;DHT22;3221;48.858;10.128;2022-12-20T14:06:13;6.80;99.90
6377;DHT22;3221;48.858;10.128;2022-12-20T14:08:44;6.80;99.90
6377;DHT22;3221;48.858;10.128;2022-12-20T14:11:25;6.80;99.90
6377;DHT22;3221;48.858;10.128;2022-12-20T14:14:03;6.70;99.90
6377;DHT22;3221;48.858;10.128;2022-12-20T14:16:31;6.80;99.90
6377;DHT22;3221;48.858;10.128;2022-12-20T14:19:00;6.80;99.90
6377;DHT22;3221;48.858;10.128;2022-12-20T14:21:29;6.70;99.90
6377;DHT22;3221;48.858;10.128;2022-12-20T14:23:57;6.80;99.90
6377;DHT22;3221;48.858;10.128;2022-12-20T14:26:28;6.80;99.90
6377;DHT22;3221;48.858;10.128;2022-12-20T14:28:56;6.80;99.90
6377;DHT22;3221;48.858;10.128;2022-12-20T14:36:28;6.70;99.90
6377;DHT22;3221;48.858;10.128;2022-12-20T14:38:57;6.60;99.90
6377;DHT22;3221;48.858;10.128;2022-12-20T14:41:35;6.80;99.90
6377;DHT22;3221;48.858;10.128;2022-12-20T14:46:34;7.00;99.90
6377;DHT22;3221;48.858;10.128;2022-12-20T14:49:29;6.90;99.90
6377;DHT22;3221;48.858;10.128;2022-12-20T14:52:16;7.10;99.90
6377;DHT22;3221;48.858;10.128;2022-12-20T14:54:47;7.20;99.90
6377;DHT22;3221;48.858;10.128;2022-12-20T15:00:19;7.20;99.90
6377;DHT22;3221;48.858;10.128;2022-12-20T15:16:19;6.70;99.90
6377;DHT22;3221;48.858;10.128;2022-12-20T15:18:49;6.60;99.90
6377;DHT22;3221;48.858;10.128;2022-12-20T15:21:36;6.60;99.90
6377;DHT22;3221;48.858;10.128;2022-12-20T15:24:12;6.60;99.90
6377;DHT22;3221;48.858;10.128;2022-12-20T15:26:39;6.50;99.90
6377;DHT22;3221;48.858;10.128;2022-12-20T15:29:09;6.60;99.90
6377;DHT22;3221;48.858;10.128;2022-12-20T15:31:37;6.70;99.90
6377;DHT22;3221;48.858;10.128;2022-12-20T15:34:26;6.80;99.90
6377;DHT22;3221;48.858;10.128;2022-12-20T15:36:54;6.60;99.90
6377;DHT22;3221;48.858;10.128;2022-12-20T15:39:22;6.50;99.90
6377;DHT22;3221;48.858;10.128;2022-12-20T15:41:49;6.60;99.90
6377;DHT22;3221;48.858;10.128;2022-12-20T15:44:22;6.50;99.90
6377;DHT22;3221;48.858;10.128;2022-12-20T15:46:50;6.60;99.90
6377;DHT22;3221;48.858;10.128;2022-12-20T15:49:20;6.50;99.90
6377;DHT22;3221;48.858;10.128;2022-12-20T15:51:50;6.50;99.90
6377;DHT22;3221;48.858;10.128;2022-12-20T15:54:28;6.40;99.90
6377;DHT22;3221;48.858;10.128;2022-12-20T15:56:57;6.50;99.90
6377;DHT22;3221;48.858;10.128;2022-12-20T15:59:24;6.40;99.90
6377;DHT22;3221;48.858;10.128;2022-12-20T16:02:21;6.30;99.90
6377;DHT22;3221;48.858;10.128;2022-12-20T16:04:49;6.30;99.90
6377;DHT22;3221;48.858;10.128;2022-12-20T16:07:16;6.20;99.90
6377;DHT22;3221;48.858;10.128;2022-12-20T16:09:43;6.20;99.90
6377;DHT22;3221;48.858;10.128;2022-12-20T16:12:17;6.30;99.90
6377;DHT22;3221;48.858;10.128;2022-12-20T16:14:44;6.30;99.90
6377;DHT22;3221;48.858;10.128;2022-12-20T16:17:15;6.30;99.90
6377;DHT22;3221;48.858;10.128;2022-12-20T16:19:42;6.20;99.90
6377;DHT22;3221;48.858;10.128;2022-12-20T16:22:15;6.20;99.90
6377;DHT22;3221;48.858;10.128;2022-12-20T16:24:43;6.20;99.90
6377;DHT22;3221;48.858;10.128;2022-12-20T16:27:10;6.20;99.90
6377;DHT22;3221;48.858;10.128;2022-12-20T16:29:36;6.20;99.90
6377;DHT22;3221;48.858;10.128;2022-12-20T16:32:15;6.20;99.90
6377;DHT22;3221;48.858;10.128;2022-12-20T16:34:43;6.30;99.90
6377;DHT22;3221;48.858;10.128;2022-12-20T16:37:11;6.30;99.90
6377;DHT22;3221;48.858;10.128;2022-12-20T16:39:38;6.10;99.90
6377;DHT22;3221;48.858;10.128;2022-12-20T16:42:16;5.90;99.90
6377;DHT22;3221;48.858;10.128;2022-12-20T16:44:43;6.00;99.90
6377;DHT22;3221;48.858;10.128;2022-12-20T16:47:12;6.00;99.90
6377;DHT22;3221;48.858;10.128;2022-12-20T16:49:40;6.00;99.90
6377;DHT22;3221;48.858;10.128;2022-12-20T16:52:18;6.00;99.90
6377;DHT22;3221;48.858;10.128;2022-12-20T16:54:46;5.90;99.90
6377;DHT22;3221;48.858;10.128;2022-12-20T16:57:13;5.80;99.90
6377;DHT22;3221;48.858;10.128;2022-12-20T16:59:40;5.80;99.90
6377;DHT22;3221;48.858;10.128;2022-12-20T17:02:23;5.70;99.90
6377;DHT22;3221;48.858;10.128;2022-12-20T17:04:51;5.80;99.90
6377;DHT22;3221;48.858;10.128;2022-12-20T17:07:18;5.50;99.90
6377;DHT22;3221;48.858;10.128;2022-12-20T17:09:45;5.80;99.90
6377;DHT22;3221;48.858;10.128;2022-12-20T17:12:20;5.60;99.90
6377;DHT22;3221;48.858;10.128;2022-12-20T17:14:47;5.50;99.90
6377;DHT22;3221;48.858;10.128;2022-12-20T17:17:14;5.50;99.90
6377;DHT22;3221;48.858;10.128;2022-12-20T17:19:41;5.50;99.90
6377;DHT22;3221;48.858;10.128;2022-12-20T17:22:10;5.40;99.90
6377;DHT22;3221;48.858;10.128;2022-12-20T17:24:49;5.40;99.90
6377;DHT22;3221;48.858;10.128;2022-12-20T17:27:16;5.40;99.90
6377;DHT22;3221;48.858;10.128;2022-12-20T17:29:44;5.50;99.90
6377;DHT22;3221;48.858;10.128;2022-12-20T17:32:21;5.60;99.90
6377;DHT22;3221;48.858;10.128;2022-12-20T17:34:48;5.60;99.90
6377;DHT22;3221;48.858;10.128;2022-12-20T17:37:15;5.60;99.90
6377;DHT22;3221;48.858;10.128;2022-12-20T17:39:43;5.70;99.90
6377;DHT22;3221;48.858;10.128;2022-12-20T17:42:13;5.50;99.90
6377;DHT22;3221;48.858;10.128;2022-12-20T17:44:40;5.50;99.90
6377;DHT22;3221;48.858;10.128;2022-12-20T17:47:07;5.60;99.90
6377;DHT22;3221;48.858;10.128;2022-12-20T17:49:33;5.70;99.90
6377;DHT22;3221;48.858;10.128;2022-12-20T17:52:00;5.80;99.90
6377;DHT22;3221;48.858;10.128;2022-12-20T17:54:27;6.00;99.90
6377;DHT22;3221;48.858;10.128;2022-12-20T17:57:04;5.80;99.90
6377;DHT22;3221;48.858;10.128;2022-12-20T17:59:31;5.60;99.90
6377;DHT22;3221;48.858;10.128;2022-12-20T18:01:58;5.40;99.90
6377;DHT22;3221;48.858;10.128;2022-12-20T18:04:25;5.40;99.90
6377;DHT22;3221;48.858;10.128;2022-12-20T18:06:52;5.30;99.90
6377;DHT22;3221;48.858;10.128;2022-12-20T18:09:20;5.40;99.90
6377;DHT22;3221;48.858;10.128;2022-12-20T18:11:47;5.40;99.90
6377;DHT22;3221;48.858;10.128;2022-12-20T18:14:14;5.50;99.90
6377;DHT22;3221;48.858;10.128;2022-12-20T18:16:41;5.50;99.90
6377;DHT22;3221;48.858;10.128;2022-12-20T18:19:14;5.50;99.90
6377;DHT22;3221;48.858;10.128;2022-12-20T18:21:42;5.70;99.90